createdAt,value
2022-09-24T00:00:24.824Z,71.50
2022-09-24T00:04:09.728Z,71.50
2022-09-24T00:07:51.704Z,71.70
2022-09-24T00:11:33.577Z,71.90
2022-09-24T00:15:15.441Z,72.20
2022-09-24T00:18:59.411Z,72.60
2022-09-24T00:22:41.196Z,73.10
2022-09-24T00:26:42.514Z,73.30
2022-09-24T00:30:24.307Z,73.10
2022-09-24T00:34:06.229Z,72.90
2022-09-24T00:37:48.053Z,73.20
2022-09-24T00:41:35.897Z,73.50
2022-09-24T00:45:17.699Z,73.40
2022-09-24T00:49:19.225Z,73.70
2022-09-24T00:53:06.455Z,73.30
2022-09-24T00:56:49.091Z,73.90
2022-09-24T01:00:31.814Z,71.60
2022-09-24T01:04:15.369Z,73.70
2022-09-24T01:07:58.158Z,74.10
2022-09-24T01:11:59.415Z,74.30
2022-09-24T01:15:56.830Z,74.30
2022-09-24T01:19:57.098Z,74.80
2022-09-24T01:23:48.741Z,74.00
2022-09-24T01:28:04.912Z,74.30
2022-09-24T01:31:52.038Z,74.10
2022-09-24T01:35:39.957Z,74.80
2022-09-24T01:39:22.989Z,72.50
2022-09-24T01:43:06.928Z,74.90
2022-09-24T01:46:50.186Z,75.30
2022-09-24T01:50:42.580Z,75.40
2022-09-24T01:54:35.708Z,75.30
2022-09-24T01:58:24.629Z,75.30
2022-09-24T02:02:29.150Z,75.10
2022-09-24T02:06:23.195Z,75.20
2022-09-24T02:10:05.849Z,75.90
2022-09-24T02:14:20.349Z,75.90
2022-09-24T02:18:08.097Z,75.40
2022-09-24T02:21:51.216Z,76.00
2022-09-24T02:25:50.635Z,76.10
2022-09-24T02:29:32.456Z,76.50
2022-09-24T02:33:33.741Z,76.70
2022-09-24T02:37:16.624Z,76.70
2022-09-24T02:40:58.894Z,76.40
2022-09-24T02:44:40.779Z,76.50
2022-09-24T02:48:22.662Z,76.60
2022-09-24T02:52:04.796Z,76.60
2022-09-24T02:55:46.564Z,76.80
2022-09-24T02:59:28.389Z,76.70
2022-09-24T03:03:10.208Z,77.10
2022-09-24T03:06:52.068Z,77.30
2022-09-24T03:10:35.051Z,77.20
2022-09-24T03:14:16.797Z,77.20
2022-09-24T03:17:58.587Z,77.20
2022-09-24T03:21:40.361Z,77.30
2022-09-24T03:25:22.413Z,77.50
2022-09-24T03:29:04.305Z,77.40
2022-09-24T03:32:48.085Z,77.40
2022-09-24T03:36:29.939Z,77.50
2022-09-24T03:40:12.024Z,77.50
2022-09-24T03:43:54.021Z,77.50
2022-09-24T03:47:35.785Z,77.50
2022-09-24T03:51:19.971Z,77.70
2022-09-24T03:55:01.851Z,77.50
2022-09-24T03:58:48.029Z,77.50
2022-09-24T04:02:31.146Z,77.40
2022-09-24T04:06:12.971Z,77.40
2022-09-24T04:09:54.794Z,77.60
2022-09-24T04:13:36.673Z,77.60
2022-09-24T04:17:18.502Z,77.90
2022-09-24T04:21:00.698Z,77.80
2022-09-24T04:24:42.489Z,78.60
2022-09-24T04:28:25.297Z,78.00
2022-09-24T04:32:07.079Z,78.00
2022-09-24T04:35:48.849Z,78.00
2022-09-24T04:39:30.625Z,78.00
2022-09-24T04:43:13.330Z,77.90
2022-09-24T04:46:55.856Z,77.90
2022-09-24T04:50:43.280Z,78.00
2022-09-24T04:54:29.980Z,77.70
2022-09-24T04:58:11.754Z,78.00
2022-09-24T05:01:54.528Z,78.50
2022-09-24T05:05:36.761Z,78.40
2022-09-24T05:09:18.682Z,78.50
2022-09-24T05:13:01.139Z,78.60
2022-09-24T05:16:42.878Z,78.70
2022-09-24T05:20:25.139Z,78.90
2022-09-24T05:24:07.092Z,79.60
2022-09-24T05:27:51.115Z,79.20
2022-09-24T05:31:33.035Z,79.20
2022-09-24T05:35:14.920Z,79.30
2022-09-24T05:38:56.757Z,79.10
2022-09-24T05:42:39.527Z,79.10
2022-09-24T05:46:21.514Z,79.40
2022-09-24T05:50:03.608Z,79.40
2022-09-24T05:53:45.423Z,79.40
2022-09-24T05:57:27.206Z,79.60
2022-09-24T06:01:09.028Z,79.70
2022-09-24T06:04:50.809Z,79.60
2022-09-24T06:08:35.454Z,79.80
2022-09-24T06:12:17.662Z,80.00
2022-09-24T06:16:04.278Z,80.10
2022-09-24T06:19:47.352Z,80.20
2022-09-24T06:23:29.775Z,80.30
2022-09-24T06:27:11.709Z,80.40
2022-09-24T06:30:54.046Z,80.50
2022-09-24T06:34:35.877Z,80.60
2022-09-24T06:38:19.343Z,80.70
2022-09-24T06:42:01.084Z,80.70
2022-09-24T06:45:43.104Z,80.90
2022-09-24T06:49:25.782Z,81.00
2022-09-24T06:53:09.893Z,81.00
2022-09-24T06:56:52.659Z,81.20
2022-09-24T07:00:36.114Z,81.20
2022-09-24T07:04:18.180Z,81.30
2022-09-24T07:08:00.329Z,81.70
2022-09-24T07:11:42.472Z,82.20
2022-09-24T07:15:24.321Z,82.90
2022-09-24T07:19:06.133Z,83.40
2022-09-24T07:22:47.931Z,83.50
2022-09-24T07:26:30.205Z,83.90
2022-09-24T07:30:12.928Z,83.80
2022-09-24T07:33:54.731Z,84.10
2022-09-24T07:37:36.532Z,84.30
2022-09-24T07:41:18.838Z,84.50
2022-09-24T07:45:01.018Z,85.10
2022-09-24T07:48:42.931Z,85.60
2022-09-24T07:52:24.672Z,86.50
2022-09-24T07:56:06.685Z,88.00
2022-09-24T07:59:48.757Z,89.80
2022-09-24T08:03:31.502Z,90.60
2022-09-24T08:07:13.758Z,91.50
2022-09-24T08:10:55.615Z,92.00
2022-09-24T08:14:37.408Z,92.20
2022-09-24T08:18:19.227Z,92.50
2022-09-24T08:22:01.123Z,92.90
2022-09-24T08:25:42.956Z,92.80
2022-09-24T08:29:24.749Z,92.40
2022-09-24T08:33:06.765Z,91.90
2022-09-24T08:36:50.342Z,91.60
2022-09-24T08:40:39.851Z,91.30
2022-09-24T08:45:03.989Z,91.30
2022-09-24T08:48:51.475Z,90.60
2022-09-24T08:52:59.583Z,90.00
2022-09-24T08:56:45.516Z,89.20
2022-09-24T09:00:31.846Z,87.60
2022-09-24T09:04:52.202Z,85.50
2022-09-24T09:09:06.774Z,83.70
2022-09-24T09:12:55.140Z,81.60
2022-09-24T09:16:48.976Z,80.00
2022-09-24T09:20:36.089Z,78.30
2022-09-24T09:24:39.972Z,77.50
2022-09-24T09:28:21.809Z,75.60
2022-09-24T09:32:30.523Z,75.00
2022-09-24T09:36:35.776Z,74.60
2022-09-24T09:40:40.491Z,72.30
2022-09-24T09:44:26.411Z,71.30
2022-09-24T09:48:14.170Z,67.50
2022-09-24T09:52:00.762Z,64.60
2022-09-24T09:55:42.564Z,60.00
2022-09-24T09:59:34.127Z,56.20
2022-09-24T10:03:30.173Z,54.50
2022-09-24T10:07:15.192Z,54.30
2022-09-24T10:10:59.979Z,49.20
2022-09-24T10:14:41.894Z,46.90
2022-09-24T10:18:35.683Z,44.80
2022-09-24T10:22:25.355Z,46.10
2022-09-24T10:26:08.364Z,44.30
2022-09-24T10:30:13.437Z,43.10
2022-09-24T10:33:57.293Z,43.40
2022-09-24T10:37:49.867Z,43.30
2022-09-24T10:41:34.764Z,42.90
2022-09-24T10:45:16.559Z,43.40
2022-09-24T10:49:36.677Z,42.30
2022-09-24T10:53:27.909Z,44.60
2022-09-24T10:57:25.487Z,42.00
2022-09-24T11:01:16.645Z,41.40
2022-09-24T11:05:17.139Z,42.30
2022-09-24T11:09:16.528Z,42.20
2022-09-24T11:13:26.016Z,38.50
2022-09-24T11:17:19.113Z,39.70
2022-09-24T11:21:16.167Z,37.00
2022-09-24T11:25:03.899Z,38.70
2022-09-24T11:29:22.693Z,33.80
2022-09-24T11:33:04.423Z,38.70
2022-09-24T11:36:58.578Z,33.20
2022-09-24T11:41:15.444Z,32.00
2022-09-24T11:45:27.229Z,33.10
2022-09-24T11:49:24.412Z,36.40
2022-09-24T11:53:15.248Z,32.80
2022-09-24T11:57:05.416Z,30.70
2022-09-24T12:00:57.816Z,30.90
2022-09-24T12:04:54.585Z,31.00
2022-09-24T12:08:45.049Z,29.60
2022-09-24T12:12:38.760Z,31.00
2022-09-24T12:16:26.388Z,28.90
2022-09-24T12:20:30.419Z,29.30
2022-09-24T12:24:23.891Z,31.70
2022-09-24T12:28:06.401Z,30.10
2022-09-24T12:32:40.645Z,28.70
2022-09-24T12:36:37.525Z,32.00
2022-09-24T12:40:33.590Z,28.70
2022-09-24T12:44:27.910Z,29.70
2022-09-24T12:48:16.135Z,28.80
2022-09-24T12:52:01.624Z,28.90
2022-09-24T12:55:45.614Z,27.30
2022-09-24T12:59:28.614Z,27.10
2022-09-24T13:03:34.054Z,27.80
2022-09-24T13:07:40.804Z,30.60
2022-09-24T13:11:30.536Z,30.70
2022-09-24T13:15:39.909Z,27.50
2022-09-24T13:19:23.779Z,29.80
2022-09-24T13:23:31.882Z,27.20
2022-09-24T13:27:21.853Z,29.40
2022-09-24T13:31:21.586Z,28.00
2022-09-24T13:35:09.538Z,28.90
2022-09-24T13:39:24.710Z,28.90
2022-09-24T13:43:18.570Z,30.40
2022-09-24T13:47:15.610Z,30.00
2022-09-24T13:50:57.434Z,30.70
2022-09-24T13:54:48.766Z,30.00
2022-09-24T13:58:41.991Z,30.50
2022-09-24T14:02:26.813Z,29.20
2022-09-24T14:06:14.413Z,28.40
2022-09-24T14:10:13.110Z,28.70
2022-09-24T14:13:56.405Z,29.80
2022-09-24T14:17:40.434Z,30.30
2022-09-24T14:21:32.036Z,31.50
2022-09-24T14:25:21.870Z,33.00
2022-09-24T14:29:16.415Z,32.50
2022-09-24T14:33:01.354Z,31.70
2022-09-24T14:36:43.216Z,29.70
2022-09-24T14:40:26.630Z,28.80
2022-09-24T14:44:26.065Z,29.00
2022-09-24T14:48:28.641Z,30.10
2022-09-24T14:52:31.318Z,30.50
2022-09-24T14:56:20.685Z,31.50
2022-09-24T15:00:02.649Z,31.00
2022-09-24T15:03:48.955Z,31.50
2022-09-24T15:07:31.517Z,32.60
2022-09-24T15:11:18.133Z,33.60
2022-09-24T15:15:02.659Z,34.50
2022-09-24T15:18:44.497Z,34.90
2022-09-24T15:22:28.139Z,35.40
2022-09-24T15:26:09.991Z,35.90
2022-09-24T15:29:51.925Z,36.40
2022-09-24T15:33:33.776Z,36.30
2022-09-24T15:37:19.902Z,35.60
2022-09-24T15:41:01.598Z,34.50
2022-09-24T15:44:45.089Z,35.20
2022-09-24T15:48:26.867Z,32.40
2022-09-24T15:52:25.112Z,32.30
2022-09-24T15:56:07.683Z,32.30
2022-09-24T15:59:50.251Z,32.30
2022-09-24T16:03:33.225Z,33.70
2022-09-24T16:07:15.127Z,34.00
2022-09-24T16:10:56.880Z,34.90
2022-09-24T16:14:38.659Z,35.30
2022-09-24T16:18:22.263Z,35.90
2022-09-24T16:22:04.837Z,37.30
2022-09-24T16:25:57.413Z,37.20
2022-09-24T16:29:39.205Z,37.80
2022-09-24T16:33:21.736Z,37.50
2022-09-24T16:37:03.503Z,37.40
2022-09-24T16:40:45.542Z,38.00
2022-09-24T16:44:27.420Z,38.10
2022-09-24T16:48:11.543Z,38.00
2022-09-24T16:51:53.377Z,38.10
2022-09-24T16:55:35.212Z,38.00
2022-09-24T16:59:17.016Z,40.60
2022-09-24T17:02:59.676Z,41.60
2022-09-24T17:06:44.584Z,42.40
2022-09-24T17:10:26.421Z,42.90
2022-09-24T17:14:14.773Z,43.10
2022-09-24T17:17:56.845Z,43.60
2022-09-24T17:21:40.940Z,44.10
2022-09-24T17:25:22.728Z,44.90
2022-09-24T17:29:04.513Z,45.10
2022-09-24T17:32:46.275Z,45.00
2022-09-24T17:36:29.609Z,45.60
2022-09-24T17:40:11.529Z,45.30
2022-09-24T17:43:53.359Z,45.50
2022-09-24T17:47:55.080Z,45.40
2022-09-24T17:51:37.652Z,45.80
2022-09-24T17:55:19.411Z,45.90
2022-09-24T17:59:01.262Z,46.20
2022-09-24T18:02:43.081Z,46.50
2022-09-24T18:06:31.950Z,46.70
2022-09-24T18:10:17.249Z,47.00
2022-09-24T18:14:01.055Z,47.50
2022-09-24T18:17:42.871Z,47.70
2022-09-24T18:21:25.005Z,47.80
2022-09-24T18:25:07.558Z,48.10
2022-09-24T18:28:54.890Z,48.60
2022-09-24T18:32:37.087Z,48.80
2022-09-24T18:36:22.600Z,49.10
2022-09-24T18:40:05.934Z,49.20
2022-09-24T18:43:48.431Z,49.40
2022-09-24T18:47:30.617Z,49.80
2022-09-24T18:51:25.090Z,49.70
2022-09-24T18:55:07.721Z,49.70
2022-09-24T18:58:54.363Z,50.30
2022-09-24T19:02:36.146Z,50.50
2022-09-24T19:06:18.204Z,47.90
2022-09-24T19:10:00.040Z,50.80
2022-09-24T19:13:42.940Z,51.00
2022-09-24T19:17:25.540Z,51.40
2022-09-24T19:21:09.936Z,51.70
2022-09-24T19:24:51.717Z,51.80
2022-09-24T19:28:35.160Z,51.90
2022-09-24T19:32:16.934Z,52.00
2022-09-24T19:36:04.669Z,52.00
2022-09-24T19:39:46.538Z,52.20
2022-09-24T19:43:29.734Z,52.20
2022-09-24T19:47:11.549Z,52.00
2022-09-24T19:50:54.423Z,51.70
2022-09-24T19:54:36.416Z,52.10
2022-09-24T19:58:18.296Z,52.30
2022-09-24T20:02:00.527Z,52.50
2022-09-24T20:05:43.641Z,52.70
2022-09-24T20:09:25.398Z,52.90
2022-09-24T20:13:10.620Z,53.20
2022-09-24T20:16:52.410Z,53.20
2022-09-24T20:20:34.841Z,53.60
2022-09-24T20:24:16.650Z,53.70
2022-09-24T20:27:58.416Z,53.90
2022-09-24T20:31:51.215Z,54.30
2022-09-24T20:35:33.487Z,54.70
2022-09-24T20:39:15.492Z,54.70
2022-09-24T20:42:57.323Z,54.90
2022-09-24T20:46:39.349Z,55.10
2022-09-24T20:50:21.397Z,55.20
2022-09-24T20:54:03.302Z,55.50
2022-09-24T20:57:45.171Z,55.60
2022-09-24T21:01:27.225Z,55.70
2022-09-24T21:05:10.513Z,56.10
2022-09-24T21:08:52.915Z,56.40
2022-09-24T21:12:34.763Z,56.60
2022-09-24T21:16:19.799Z,56.80
2022-09-24T21:20:02.292Z,57.00
2022-09-24T21:23:46.219Z,57.20
2022-09-24T21:27:28.031Z,57.30
2022-09-24T21:31:10.117Z,57.60
2022-09-24T21:34:51.999Z,57.70
2022-09-24T21:38:34.452Z,58.00
2022-09-24T21:42:18.354Z,58.30
2022-09-24T21:46:02.242Z,58.50
2022-09-24T21:49:44.098Z,58.70
2022-09-24T21:53:25.900Z,59.20
2022-09-24T21:57:07.794Z,59.50
2022-09-24T22:00:49.641Z,59.90
2022-09-24T22:04:34.194Z,60.30
2022-09-24T22:08:16.714Z,60.70
2022-09-24T22:12:00.563Z,61.30
2022-09-24T22:15:43.756Z,61.70
2022-09-24T22:19:25.532Z,61.90
2022-09-24T22:23:07.397Z,62.40
2022-09-24T22:26:49.297Z,62.60
2022-09-24T22:30:31.310Z,62.80
2022-09-24T22:34:31.577Z,63.20
2022-09-24T22:38:15.789Z,63.50
2022-09-24T22:41:57.639Z,63.80
2022-09-24T22:45:39.524Z,64.00
2022-09-24T22:49:22.529Z,64.20
2022-09-24T22:53:04.387Z,64.60
2022-09-24T22:56:46.160Z,64.70
2022-09-24T23:00:27.922Z,64.70
2022-09-24T23:04:13.325Z,65.00
2022-09-24T23:07:55.905Z,65.20
2022-09-24T23:11:37.822Z,65.30
2022-09-24T23:15:19.684Z,65.40
2022-09-24T23:19:04.804Z,65.60
2022-09-24T23:22:46.557Z,65.70
2022-09-24T23:26:29.203Z,65.70
2022-09-24T23:30:11.362Z,65.80
2022-09-24T23:33:55.632Z,66.00
2022-09-24T23:37:37.506Z,66.20
2022-09-24T23:41:19.877Z,66.40
2022-09-24T23:45:02.206Z,66.60
2022-09-24T23:48:44.446Z,66.80
2022-09-24T23:52:26.253Z,66.90
2022-09-24T23:56:08.908Z,67.20
2022-09-24T23:59:50.865Z,67.40
